Time,TemperatureF,DewpointF,PressureIn,WindDirection,WindDirectionDegrees,WindSpeedMPH,WindSpeedGustMPH,Humidity,HourlyPrecipIn,Conditions,Clouds,dailyrainin,SoftwareType,DateUTC
2013-03-05 00:00:00,35.2,29.0,29.96,NW,309,2.0,10.0,78,0.01,,---,0.01,VWS V14.01,2013-03-05 06:00:00,
2013-03-05 00:05:00,35.2,29.0,29.96,NNE,22,4.0,10.0,78,0.01,,---,0.00,VWS V14.01,2013-03-05 06:05:00,
2013-03-05 00:10:00,35.2,29.4,29.96,NW,321,2.0,10.0,79,0.01,,---,0.00,VWS V14.01,2013-03-05 06:10:00,
2013-03-05 00:15:00,35.2,29.4,29.96,NNW,340,7.0,10.0,79,0.01,,---,0.00,VWS V14.01,2013-03-05 06:15:00,
2013-03-05 00:20:00,35.2,29.4,29.96,NNE,21,2.0,10.0,79,0.01,,---,0.00,VWS V14.01,2013-03-05 06:20:00,
2013-03-05 00:25:00,35.2,29.7,29.96,NNW,336,1.0,10.0,80,0.01,,---,0.00,VWS V14.01,2013-03-05 06:25:00,
2013-03-05 00:30:00,35.2,29.7,29.96,North,355,3.0,10.0,80,0.01,,---,0.00,VWS V14.01,2013-03-05 06:30:00,
2013-03-05 00:35:00,35.2,29.7,29.96,NNW,331,1.0,6.0,80,0.01,,---,0.00,VWS V14.01,2013-03-05 06:35:00,
2013-03-05 00:40:00,35.2,29.7,29.96,North,360,2.0,8.0,80,0.01,,---,0.00,VWS V14.01,2013-03-05 06:40:00,
2013-03-05 00:45:00,35.0,29.5,29.96,NNW,339,6.0,8.0,80,0.01,,---,0.00,VWS V14.01,2013-03-05 06:45:00,
2013-03-05 00:50:00,35.0,29.5,29.96,NNW,330,2.0,8.0,80,0.01,,---,0.00,VWS V14.01,2013-03-05 06:50:00,
2013-03-05 00:55:00,35.0,29.8,29.96,NNW,336,1.0,8.0,81,0.01,,---,0.00,VWS V14.01,2013-03-05 06:55:00,
2013-03-05 01:00:00,35.0,29.8,29.96,NNW,339,3.0,10.0,81,0.01,,---,0.00,VWS V14.01,2013-03-05 07:00:00,
2013-03-05 01:05:00,35.0,29.8,29.96,NNW,345,6.0,10.0,81,0.00,,---,0.00,VWS V14.01,2013-03-05 07:05:00,
2013-03-05 01:10:00,34.9,29.7,29.96,NNW,329,3.0,10.0,81,0.01,,---,0.01,VWS V14.01,2013-03-05 07:10:00,
2013-03-05 01:15:00,34.7,29.5,29.96,NNW,331,5.0,10.0,81,0.01,,---,0.01,VWS V14.01,2013-03-05 07:15:00,
2013-03-05 01:20:00,34.6,29.4,29.97,NNW,339,4.0,10.0,81,0.01,,---,0.01,VWS V14.01,2013-03-05 07:20:00,
2013-03-05 01:25:00,34.1,29.2,29.97,NW,309,4.0,11.0,82,0.01,,---,0.01,VWS V14.01,2013-03-05 07:25:00,
2013-03-05 01:30:00,34.0,29.1,29.97,NNW,344,1.0,11.0,82,0.01,,---,0.01,VWS V14.01,2013-03-05 07:30:00,
2013-03-05 01:35:00,33.8,28.9,29.97,North,5,2.0,6.0,82,0.01,,---,0.01,VWS V14.01,2013-03-05 07:35:00,
2013-03-05 01:40:00,33.7,28.8,29.97,North,355,4.0,6.0,82,0.02,,---,0.02,VWS V14.01,2013-03-05 07:40:00,
2013-03-05 01:45:00,33.7,28.8,29.97,NNW,327,1.0,6.0,82,0.02,,---,0.02,VWS V14.01,2013-03-05 07:45:00,
2013-03-05 01:50:00,33.8,28.9,29.98,NNW,327,6.0,8.0,82,0.02,,---,0.02,VWS V14.01,2013-03-05 07:50:00,
2013-03-05 01:55:00,33.8,29.2,29.98,NNW,343,4.0,8.0,83,0.02,,---,0.02,VWS V14.01,2013-03-05 07:55:00,
2013-03-05 02:00:00,34.0,29.4,29.98,NW,322,3.0,8.0,83,0.02,,---,0.02,VWS V14.01,2013-03-05 08:00:00,
2013-03-05 02:05:00,34.1,29.5,29.99,NW,326,3.0,12.0,83,0.02,,---,0.02,VWS V14.01,2013-03-05 08:05:00,
2013-03-05 02:10:00,34.3,29.7,29.99,NNW,328,4.0,12.0,83,0.03,,---,0.03,VWS V14.01,2013-03-05 08:10:00,
2013-03-05 02:15:00,34.3,29.7,29.99,NNE,27,5.0,12.0,83,0.03,,---,0.03,VWS V14.01,2013-03-05 08:15:00,
2013-03-05 02:20:00,34.4,29.8,30.00,NNW,343,0.0,12.0,83,0.03,,---,0.03,VWS V14.01,2013-03-05 08:20:00,
2013-03-05 02:25:00,34.6,30.0,30.00,WNW,298,2.0,12.0,83,0.03,,---,0.03,VWS V14.01,2013-03-05 08:25:00,
2013-03-05 02:30:00,34.6,30.0,30.00,North,355,4.0,12.0,83,0.03,,---,0.03,VWS V14.01,2013-03-05 08:30:00,
2013-03-05 02:35:00,34.6,30.0,30.02,NNW,329,4.0,7.0,83,0.02,,---,0.03,VWS V14.01,2013-03-05 08:35:00,
2013-03-05 02:40:00,34.6,30.0,30.02,WNW,296,3.0,10.0,83,0.02,,---,0.03,VWS V14.01,2013-03-05 08:40:00,
2013-03-05 02:45:00,34.6,30.0,30.02,NNE,20,4.0,12.0,83,0.03,,---,0.04,VWS V14.01,2013-03-05 08:45:00,
2013-03-05 02:50:00,34.7,30.1,30.03,NNW,340,4.0,16.0,83,0.03,,---,0.04,VWS V14.01,2013-03-05 08:50:00,
2013-03-05 02:55:00,34.7,30.1,30.03,NW,324,5.0,16.0,83,0.03,,---,0.04,VWS V14.01,2013-03-05 08:55:00,
2013-03-05 03:00:00,34.7,29.8,30.03,NNW,329,4.0,16.0,82,0.03,,---,0.04,VWS V14.01,2013-03-05 09:00:00,
2013-03-05 03:05:00,34.6,29.7,30.03,North,11,3.0,9.0,82,0.02,,---,0.04,VWS V14.01,2013-03-05 09:05:00,
2013-03-05 03:10:00,34.6,29.7,30.03,NNW,331,10.0,12.0,82,0.02,,---,0.04,VWS V14.01,2013-03-05 09:10:00,
2013-03-05 03:15:00,34.6,29.7,30.03,West,281,3.0,12.0,82,0.02,,---,0.04,VWS V14.01,2013-03-05 09:15:00,
2013-03-05 03:20:00,34.6,29.7,30.01,North,350,1.0,12.0,82,0.02,,---,0.04,VWS V14.01,2013-03-05 09:20:00,
2013-03-05 03:25:00,34.6,29.4,30.01,NNW,331,3.0,12.0,81,0.02,,---,0.04,VWS V14.01,2013-03-05 09:25:00,
2013-03-05 03:30:00,34.4,29.2,30.01,NNW,333,4.0,12.0,81,0.02,,---,0.04,VWS V14.01,2013-03-05 09:30:00,
2013-03-05 03:35:00,34.6,29.4,30.01,NW,315,4.0,12.0,81,0.01,,---,0.04,VWS V14.01,2013-03-05 09:35:00,
2013-03-05 03:40:00,34.6,29.4,30.01,North,5,0.0,13.0,81,0.01,,---,0.04,VWS V14.01,2013-03-05 09:40:00,
2013-03-05 03:45:00,34.4,28.9,30.01,NW,322,7.0,13.0,80,0.01,,---,0.04,VWS V14.01,2013-03-05 09:45:00,
2013-03-05 03:50:00,34.4,28.9,30.03,NW,304,1.0,13.0,80,0.01,,---,0.04,VWS V14.01,2013-03-05 09:50:00,
2013-03-05 03:55:00,34.4,28.9,30.03,WNW,297,5.0,13.0,80,0.01,,---,0.04,VWS V14.01,2013-03-05 09:55:00,
2013-03-05 04:00:00,34.4,28.9,30.03,WNW,300,6.0,13.0,80,0.01,,---,0.04,VWS V14.01,2013-03-05 10:00:00,
2013-03-05 04:05:00,34.4,28.6,30.04,North,355,0.0,16.0,79,0.00,,---,0.04,VWS V14.01,2013-03-05 10:05:00,
2013-03-05 04:10:00,34.4,28.6,30.04,North,355,3.0,16.0,79,0.00,,---,0.04,VWS V14.01,2013-03-05 10:10:00,
2013-03-05 04:15:00,34.4,28.6,30.04,WNW,284,6.0,16.0,79,0.00,,---,0.04,VWS V14.01,2013-03-05 10:15:00,
2013-03-05 04:20:00,34.4,28.6,30.05,NNW,327,2.0,16.0,79,0.00,,---,0.04,VWS V14.01,2013-03-05 10:20:00,
2013-03-05 04:25:00,34.4,28.6,30.05,WNW,300,5.0,16.0,79,0.00,,---,0.04,VWS V14.01,2013-03-05 10:25:00,
2013-03-05 04:30:00,34.3,28.5,30.05,North,355,1.0,16.0,79,0.00,,---,0.04,VWS V14.01,2013-03-05 10:30:00,
2013-03-05 04:35:00,34.1,28.0,30.06,WSW,252,3.0,6.0,78,0.00,,---,0.04,VWS V14.01,2013-03-05 10:35:00,
2013-03-05 04:40:00,34.0,27.9,30.06,NW,319,3.0,9.0,78,0.00,,---,0.04,VWS V14.01,2013-03-05 10:40:00,
2013-03-05 04:45:00,33.7,27.3,30.06,NNW,348,3.0,12.0,77,0.00,,---,0.04,VWS V14.01,2013-03-05 10:45:00,
2013-03-05 04:50:00,33.4,27.0,30.07,NW,308,2.0,12.0,77,0.00,,---,0.04,VWS V14.01,2013-03-05 10:50:00,
2013-03-05 04:55:00,33.2,26.5,30.07,North,355,7.0,12.0,76,0.00,,---,0.04,VWS V14.01,2013-03-05 10:55:00,
2013-03-05 05:00:00,32.8,25.8,30.07,North,9,1.0,12.0,75,0.00,,---,0.04,VWS V14.01,2013-03-05 11:00:00,
2013-03-05 05:05:00,32.5,25.1,30.07,NNW,339,8.0,13.0,74,0.00,,---,0.04,VWS V14.01,2013-03-05 11:05:00,
2013-03-05 05:10:00,32.1,24.4,30.07,North,351,2.0,13.0,73,0.00,,---,0.04,VWS V14.01,2013-03-05 11:10:00,
2013-03-05 05:15:00,31.8,24.1,30.07,North,360,4.0,13.0,73,0.00,,---,0.04,VWS V14.01,2013-03-05 11:15:00,
2013-03-05 05:20:00,31.5,23.5,30.08,NNW,346,6.0,13.0,72,0.00,,---,0.04,VWS V14.01,2013-03-05 11:20:00,
2013-03-05 05:25:00,31.2,23.2,30.08,NW,312,11.0,13.0,72,0.00,,---,0.04,VWS V14.01,2013-03-05 11:25:00,
2013-03-05 05:30:00,31.0,22.7,30.08,NNW,327,10.0,17.0,71,0.00,,---,0.04,VWS V14.01,2013-03-05 11:30:00,
2013-03-05 05:35:00,30.7,22.1,30.08,NW,325,9.0,11.0,70,0.00,,---,0.04,VWS V14.01,2013-03-05 11:35:00,
2013-03-05 05:40:00,30.4,21.8,30.08,NW,322,3.0,11.0,70,0.00,,---,0.04,VWS V14.01,2013-03-05 11:40:00,
2013-03-05 05:45:00,30.3,21.7,30.08,NW,326,4.0,11.0,70,0.00,,---,0.04,VWS V14.01,2013-03-05 11:45:00,
2013-03-05 05:50:00,30.1,21.5,30.09,WNW,294,5.0,11.0,70,0.00,,---,0.04,VWS V14.01,2013-03-05 11:50:00,
2013-03-05 05:55:00,30.0,21.1,30.09,WNW,292,4.0,11.0,69,0.00,,---,0.04,VWS V14.01,2013-03-05 11:55:00,
2013-03-05 06:00:00,30.0,21.1,30.09,NNW,327,2.0,11.0,69,0.00,,---,0.04,VWS V14.01,2013-03-05 12:00:00,
2013-03-05 06:05:00,29.8,20.9,30.10,NW,306,4.0,9.0,69,0.00,,---,0.04,VWS V14.01,2013-03-05 12:05:00,
2013-03-05 06:10:00,29.7,20.8,30.10,NNW,338,7.0,11.0,69,0.00,,---,0.04,VWS V14.01,2013-03-05 12:10:00,
2013-03-05 06:15:00,29.5,20.3,30.10,West,272,7.0,14.0,68,0.00,,---,0.04,VWS V14.01,2013-03-05 12:15:00,
2013-03-05 06:20:00,29.4,20.2,30.10,WNW,286,5.0,14.0,68,0.00,,---,0.04,VWS V14.01,2013-03-05 12:20:00,
2013-03-05 06:25:00,29.3,20.1,30.10,NNW,327,3.0,14.0,68,0.00,,---,0.04,VWS V14.01,2013-03-05 12:25:00,
2013-03-05 06:30:00,29.0,19.8,30.10,WSW,239,6.0,14.0,68,0.00,,---,0.04,VWS V14.01,2013-03-05 12:30:00,
2013-03-05 06:35:00,28.8,19.2,30.11,NNW,336,2.0,8.0,67,0.00,,---,0.04,VWS V14.01,2013-03-05 12:35:00,
2013-03-05 06:40:00,28.7,19.1,30.11,NNW,328,8.0,12.0,67,0.00,,---,0.04,VWS V14.01,2013-03-05 12:40:00,
2013-03-05 06:45:00,28.5,19.0,30.11,NW,318,2.0,12.0,67,0.00,,---,0.04,VWS V14.01,2013-03-05 12:45:00,
2013-03-05 06:50:00,28.4,18.9,30.12,NNW,335,5.0,12.0,67,0.00,,---,0.04,VWS V14.01,2013-03-05 12:50:00,
2013-03-05 06:55:00,28.2,18.7,30.12,NNW,342,6.0,12.0,67,0.00,,---,0.04,VWS V14.01,2013-03-05 12:55:00,
2013-03-05 07:00:00,28.1,18.6,30.12,North,355,5.0,13.0,67,0.00,,---,0.04,VWS V14.01,2013-03-05 13:00:00,
2013-03-05 07:05:00,27.9,18.4,30.12,NNW,335,5.0,9.0,67,0.00,,---,0.04,VWS V14.01,2013-03-05 13:05:00,
2013-03-05 07:10:00,27.9,18.4,30.12,NW,320,4.0,13.0,67,0.00,,---,0.04,VWS V14.01,2013-03-05 13:10:00,
2013-03-05 07:15:00,27.9,18.4,30.12,WSW,238,1.0,13.0,67,0.00,,---,0.04,VWS V14.01,2013-03-05 13:15:00,
2013-03-05 07:20:00,27.8,18.3,30.13,North,355,4.0,15.0,67,0.00,,---,0.04,VWS V14.01,2013-03-05 13:20:00,
2013-03-05 07:25:00,27.6,17.7,30.13,NW,324,1.0,15.0,66,0.00,,---,0.04,VWS V14.01,2013-03-05 13:25:00,
2013-03-05 07:30:00,27.6,18.1,30.13,NNW,336,0.0,15.0,67,0.00,,---,0.04,VWS V14.01,2013-03-05 13:30:00,
2013-03-05 07:35:00,27.8,17.9,30.13,North,355,10.0,14.0,66,0.00,,---,0.04,VWS V14.01,2013-03-05 13:35:00,
2013-03-05 07:40:00,27.8,17.9,30.13,NNW,341,4.0,17.0,66,0.00,,---,0.04,VWS V14.01,2013-03-05 13:40:00,
2013-03-05 07:45:00,27.6,17.7,30.13,SSW,194,5.0,17.0,66,0.00,,---,0.04,VWS V14.01,2013-03-05 13:45:00,
2013-03-05 07:50:00,27.8,17.9,30.14,NNW,331,6.0,17.0,66,0.00,,---,0.04,VWS V14.01,2013-03-05 13:50:00,
2013-03-05 07:55:00,27.8,17.6,30.14,NNW,330,5.0,17.0,65,0.00,,---,0.04,VWS V14.01,2013-03-05 13:55:00,
2013-03-05 08:00:00,27.9,17.7,30.14,North,355,4.0,17.0,65,0.00,,---,0.04,VWS V14.01,2013-03-05 14:00:00,
2013-03-05 08:05:00,27.9,17.7,30.15,NNW,340,4.0,15.0,65,0.00,,---,0.04,VWS V14.01,2013-03-05 14:05:00,
2013-03-05 08:10:00,27.9,17.7,30.15,SW,215,5.0,15.0,65,0.00,,---,0.04,VWS V14.01,2013-03-05 14:10:00,
2013-03-05 08:15:00,28.1,17.9,30.15,SW,236,4.0,16.0,65,0.00,,---,0.04,VWS V14.01,2013-03-05 14:15:00,
2013-03-05 08:20:00,28.2,18.0,30.15,NW,309,4.0,16.0,65,0.00,,---,0.04,VWS V14.01,2013-03-05 14:20:00,
2013-03-05 08:25:00,28.4,18.1,30.15,NW,325,2.0,16.0,65,0.00,,---,0.04,VWS V14.01,2013-03-05 14:25:00,
2013-03-05 08:30:00,28.5,18.2,30.15,North,11,7.0,16.0,65,0.00,,---,0.04,VWS V14.01,2013-03-05 14:30:00,
2013-03-05 08:35:00,28.5,17.9,30.16,NNW,327,4.0,14.0,64,0.00,,---,0.04,VWS V14.01,2013-03-05 14:35:00,
2013-03-05 08:40:00,28.5,17.9,30.16,NNW,346,11.0,14.0,64,0.00,,---,0.04,VWS V14.01,2013-03-05 14:40:00,
2013-03-05 08:45:00,28.7,18.1,30.16,NNW,344,5.0,14.0,64,0.00,,---,0.04,VWS V14.01,2013-03-05 14:45:00,
2013-03-05 08:50:00,28.8,18.2,30.16,NNW,327,8.0,14.0,64,0.00,,---,0.04,VWS V14.01,2013-03-05 14:50:00,
2013-03-05 08:55:00,28.8,18.2,30.16,WSW,244,5.0,14.0,64,0.00,,---,0.04,VWS V14.01,2013-03-05 14:55:00,
2013-03-05 09:00:00,29.0,18.4,30.16,NNW,338,7.0,14.0,64,0.00,,---,0.04,VWS V14.01,2013-03-05 15:00:00,
2013-03-05 09:05:00,29.0,18.4,30.16,West,277,7.0,11.0,64,0.00,,---,0.04,VWS V14.01,2013-03-05 15:05:00,
2013-03-05 09:10:00,29.0,18.4,30.16,North,351,2.0,14.0,64,0.00,,---,0.04,VWS V14.01,2013-03-05 15:10:00,
2013-03-05 09:15:00,29.0,18.0,30.16,NNW,343,10.0,14.0,63,0.00,,---,0.04,VWS V14.01,2013-03-05 15:15:00,
2013-03-05 09:20:00,28.8,17.8,30.16,NE,54,5.0,14.0,63,0.00,,---,0.04,VWS V14.01,2013-03-05 15:20:00,
2013-03-05 09:25:00,29.0,18.0,30.16,NNW,344,6.0,16.0,63,0.00,,---,0.04,VWS V14.01,2013-03-05 15:25:00,
2013-03-05 09:30:00,29.1,18.1,30.16,NW,306,13.0,16.0,63,0.00,,---,0.04,VWS V14.01,2013-03-05 15:30:00,
2013-03-05 09:35:00,29.3,18.3,30.16,West,269,6.0,9.0,63,0.00,,---,0.04,VWS V14.01,2013-03-05 15:35:00,
2013-03-05 09:40:00,29.5,18.5,30.16,North,5,4.0,12.0,63,0.00,,---,0.04,VWS V14.01,2013-03-05 15:40:00,
2013-03-05 09:45:00,30.0,18.6,30.16,North,350,7.0,14.0,62,0.00,,---,0.04,VWS V14.01,2013-03-05 15:45:00,
2013-03-05 09:50:00,30.1,18.7,30.16,NNW,348,11.0,17.0,62,0.00,,---,0.04,VWS V14.01,2013-03-05 15:50:00,
2013-03-05 09:55:00,30.1,18.7,30.16,NNW,340,7.0,17.0,62,0.00,,---,0.04,VWS V14.01,2013-03-05 15:55:00,
2013-03-05 10:00:00,30.1,18.7,30.16,North,5,8.0,17.0,62,0.00,,---,0.04,VWS V14.01,2013-03-05 16:00:00,
2013-03-05 10:05:00,30.1,18.7,30.17,NNW,342,2.0,15.0,62,0.00,,---,0.04,VWS V14.01,2013-03-05 16:05:00,
2013-03-05 10:10:00,30.3,18.9,30.17,North,360,2.0,17.0,62,0.00,,---,0.04,VWS V14.01,2013-03-05 16:10:00,
2013-03-05 10:15:00,30.4,18.6,30.17,NNW,330,9.0,17.0,61,0.00,,---,0.04,VWS V14.01,2013-03-05 16:15:00,
2013-03-05 10:20:00,30.6,18.8,30.17,WNW,290,9.0,17.0,61,0.00,,---,0.04,VWS V14.01,2013-03-05 16:20:00,
2013-03-05 10:25:00,30.7,18.9,30.17,NNW,344,10.0,18.0,61,0.00,,---,0.04,VWS V14.01,2013-03-05 16:25:00,
2013-03-05 10:30:00,31.0,19.5,30.17,NNW,333,8.0,18.0,62,0.00,,---,0.04,VWS V14.01,2013-03-05 16:30:00,
2013-03-05 10:35:00,31.5,19.6,30.18,North,360,4.0,15.0,61,0.00,,---,0.04,VWS V14.01,2013-03-05 16:35:00,
2013-03-05 10:40:00,31.5,19.6,30.18,NNW,338,3.0,17.0,61,0.00,,---,0.04,VWS V14.01,2013-03-05 16:40:00,
2013-03-05 10:45:00,31.3,19.4,30.18,NNW,342,4.0,17.0,61,0.00,,---,0.04,VWS V14.01,2013-03-05 16:45:00,
2013-03-05 10:50:00,31.2,19.3,30.19,NNW,336,3.0,17.0,61,0.00,,---,0.04,VWS V14.01,2013-03-05 16:50:00,
2013-03-05 10:55:00,31.2,19.3,30.19,North,350,6.0,17.0,61,0.00,,---,0.04,VWS V14.01,2013-03-05 16:55:00,
2013-03-05 11:00:00,31.3,19.4,30.19,NW,321,7.0,17.0,61,0.00,,---,0.04,VWS V14.01,2013-03-05 17:00:00,
2013-03-05 11:05:00,31.5,19.6,30.19,NNW,335,7.0,10.0,61,0.00,,---,0.04,VWS V14.01,2013-03-05 17:05:00,
2013-03-05 11:10:00,31.3,19.4,30.19,NNE,26,8.0,15.0,61,0.00,,---,0.04,VWS V14.01,2013-03-05 17:10:00,
2013-03-05 11:15:00,31.5,19.6,30.19,NW,315,5.0,15.0,61,0.00,,---,0.04,VWS V14.01,2013-03-05 17:15:00,
2013-03-05 11:20:00,31.6,19.7,30.20,NNW,346,8.0,15.0,61,0.00,,---,0.04,VWS V14.01,2013-03-05 17:20:00,
2013-03-05 11:25:00,31.6,19.7,30.20,NW,306,5.0,15.0,61,0.00,,---,0.04,VWS V14.01,2013-03-05 17:25:00,
2013-03-05 11:30:00,31.6,19.7,30.20,NE,54,1.0,15.0,61,0.00,,---,0.04,VWS V14.01,2013-03-05 17:30:00,
2013-03-05 11:35:00,31.6,19.7,30.20,NNW,344,6.0,12.0,61,0.00,,---,0.04,VWS V14.01,2013-03-05 17:35:00,
2013-03-05 11:40:00,31.6,19.7,30.20,North,350,7.0,16.0,61,0.00,,---,0.04,VWS V14.01,2013-03-05 17:40:00,
2013-03-05 11:45:00,31.9,20.0,30.20,WSW,239,4.0,16.0,61,0.00,,---,0.04,VWS V14.01,2013-03-05 17:45:00,
2013-03-05 11:50:00,32.4,20.5,30.21,NW,324,6.0,17.0,61,0.00,,---,0.04,VWS V14.01,2013-03-05 17:50:00,
2013-03-05 11:55:00,32.4,20.1,30.21,West,268,5.0,17.0,60,0.00,,---,0.04,VWS V14.01,2013-03-05 17:55:00,
2013-03-05 12:00:00,32.5,20.6,30.21,North,355,14.0,17.0,61,0.00,,---,0.04,VWS V14.01,2013-03-05 18:00:00,
2013-03-05 12:05:00,32.7,20.8,30.21,NNW,338,4.0,9.0,61,0.00,,---,0.04,VWS V14.01,2013-03-05 18:05:00,
2013-03-05 12:10:00,32.7,20.4,30.21,NNE,17,7.0,16.0,60,0.00,,---,0.04,VWS V14.01,2013-03-05 18:10:00,
2013-03-05 12:15:00,32.7,20.4,30.21,North,5,5.0,16.0,60,0.00,,---,0.04,VWS V14.01,2013-03-05 18:15:00,
2013-03-05 12:20:00,32.8,20.5,30.21,NE,55,4.0,16.0,60,0.00,,---,0.04,VWS V14.01,2013-03-05 18:20:00,
2013-03-05 12:25:00,32.9,20.5,30.21,NNW,328,2.0,17.0,60,0.00,,---,0.04,VWS V14.01,2013-03-05 18:25:00,
2013-03-05 12:30:00,33.1,21.1,30.21,SW,222,8.0,17.0,61,0.00,,---,0.04,VWS V14.01,2013-03-05 18:30:00,
2013-03-05 12:35:00,33.4,21.0,30.21,NNW,338,2.0,8.0,60,0.00,,---,0.04,VWS V14.01,2013-03-05 18:35:00,
2013-03-05 12:40:00,33.7,21.7,30.21,West,261,3.0,11.0,61,0.00,,---,0.04,VWS V14.01,2013-03-05 18:40:00,
2013-03-05 12:45:00,34.1,22.1,30.21,NNW,341,0.0,11.0,61,0.00,,---,0.04,VWS V14.01,2013-03-05 18:45:00,
2013-03-05 12:50:00,34.4,22.0,30.20,NNW,342,6.0,11.0,60,0.00,,---,0.04,VWS V14.01,2013-03-05 18:50:00,
2013-03-05 12:55:00,34.4,22.0,30.20,North,5,6.0,14.0,60,0.00,,---,0.04,VWS V14.01,2013-03-05 18:55:00,
2013-03-05 13:00:00,34.9,22.4,30.20,WSW,242,9.0,14.0,60,0.00,,---,0.04,VWS V14.01,2013-03-05 19:00:00,
2013-03-05 13:05:00,34.6,21.8,30.21,North,355,7.0,13.0,59,0.00,,---,0.04,VWS V14.01,2013-03-05 19:05:00,
2013-03-05 13:10:00,34.7,22.2,30.21,NW,318,5.0,13.0,60,0.00,,---,0.04,VWS V14.01,2013-03-05 19:10:00,
2013-03-05 13:15:00,35.0,22.5,30.21,South,185,4.0,13.0,60,0.00,,---,0.04,VWS V14.01,2013-03-05 19:15:00,
2013-03-05 13:20:00,35.2,22.7,30.20,North,9,9.0,13.0,60,0.00,,---,0.04,VWS V14.01,2013-03-05 19:20:00,
2013-03-05 13:25:00,35.0,22.1,30.20,NNW,337,5.0,14.0,59,0.00,,---,0.04,VWS V14.01,2013-03-05 19:25:00,
2013-03-05 13:30:00,35.0,22.1,30.20,WNW,296,4.0,14.0,59,0.00,,---,0.04,VWS V14.01,2013-03-05 19:30:00,
2013-03-05 13:35:00,35.3,22.4,30.20,North,350,2.0,9.0,59,0.00,,---,0.04,VWS V14.01,2013-03-05 19:35:00,
2013-03-05 13:40:00,35.6,22.7,30.20,North,350,8.0,11.0,59,0.00,,---,0.04,VWS V14.01,2013-03-05 19:40:00,
2013-03-05 13:45:00,35.6,22.7,30.20,SW,227,4.0,11.0,59,0.00,,---,0.04,VWS V14.01,2013-03-05 19:45:00,
2013-03-05 13:50:00,35.8,22.9,30.20,North,351,6.0,12.0,59,0.00,,---,0.04,VWS V14.01,2013-03-05 19:50:00,
2013-03-05 13:55:00,35.9,23.0,30.20,North,9,4.0,13.0,59,0.00,,---,0.04,VWS V14.01,2013-03-05 19:55:00,
2013-03-05 14:00:00,36.0,23.1,30.20,NW,318,13.0,15.0,59,0.00,,---,0.04,VWS V14.01,2013-03-05 20:00:00,
2013-03-05 14:05:00,35.9,23.0,30.20,NNW,339,4.0,12.0,59,0.00,,---,0.04,VWS V14.01,2013-03-05 20:05:00,
2013-03-05 14:10:00,36.0,22.7,30.20,NNW,348,6.0,13.0,58,0.00,,---,0.04,VWS V14.01,2013-03-05 20:10:00,
2013-03-05 14:15:00,36.0,22.7,30.20,NW,325,13.0,15.0,58,0.00,,---,0.04,VWS V14.01,2013-03-05 20:15:00,
2013-03-05 14:20:00,35.9,22.6,30.20,NNW,343,6.0,21.0,58,0.00,,---,0.04,VWS V14.01,2013-03-05 20:20:00,
2013-03-05 14:25:00,35.8,22.5,30.20,North,5,9.0,21.0,58,0.00,,---,0.04,VWS V14.01,2013-03-05 20:25:00,
2013-03-05 14:30:00,35.9,22.6,30.20,NNW,342,9.0,21.0,58,0.00,,---,0.04,VWS V14.01,2013-03-05 20:30:00,
2013-03-05 14:35:00,36.2,22.9,30.20,West,267,8.0,20.0,58,0.00,,---,0.04,VWS V14.01,2013-03-05 20:35:00,
2013-03-05 14:40:00,35.9,22.2,30.20,North,355,8.0,20.0,57,0.00,,---,0.04,VWS V14.01,2013-03-05 20:40:00,
2013-03-05 14:45:00,35.6,21.9,30.20,North,5,11.0,20.0,57,0.00,,---,0.04,VWS V14.01,2013-03-05 20:45:00,
2013-03-05 14:49:00,35.5,21.8,30.21,NNW,342,7.0,20.0,57,0.00,,---,0.04,VWS V14.01,2013-03-05 20:49:00,
2013-03-05 14:54:00,35.3,21.6,30.21,NNW,344,11.0,20.0,57,0.00,,---,0.04,VWS V14.01,2013-03-05 20:54:00,
2013-03-05 14:59:00,35.2,21.5,30.21,NW,315,13.0,20.0,57,0.00,,---,0.04,VWS V14.01,2013-03-05 20:59:00,
2013-03-05 15:00:00,35.2,21.5,30.22,North,355,3.0,20.0,57,0.00,,---,0.04,VWS V14.01,2013-03-05 21:00:00,
2013-03-05 15:04:00,35.2,21.5,30.22,WNW,289,5.0,16.0,57,0.00,,---,0.04,VWS V14.01,2013-03-05 21:04:00,
2013-03-05 15:09:00,35.6,21.9,30.22,WNW,283,4.0,16.0,57,0.00,,---,0.04,VWS V14.01,2013-03-05 21:09:00,
2013-03-05 15:14:00,36.0,22.3,30.22,NNW,345,3.0,16.0,57,0.00,,---,0.04,VWS V14.01,2013-03-05 21:14:00,
2013-03-05 15:19:00,36.2,22.5,30.22,NNW,340,6.0,16.0,57,0.00,,---,0.04,VWS V14.01,2013-03-05 21:19:00,
2013-03-05 15:24:00,36.2,22.5,30.22,NNW,343,5.0,16.0,57,0.00,,---,0.04,VWS V14.01,2013-03-05 21:24:00,
2013-03-05 15:29:00,36.2,22.5,30.22,SSW,205,1.0,16.0,57,0.00,,---,0.04,VWS V14.01,2013-03-05 21:29:00,
2013-03-05 15:30:00,36.2,22.5,30.23,NNW,340,9.0,16.0,57,0.00,,---,0.04,VWS V14.01,2013-03-05 21:30:00,
2013-03-05 15:34:00,36.0,21.8,30.23,North,5,4.0,13.0,56,0.00,,---,0.04,VWS V14.01,2013-03-05 21:34:00,
2013-03-05 15:39:00,35.8,21.6,30.23,NW,317,5.0,15.0,56,0.00,,---,0.04,VWS V14.01,2013-03-05 21:39:00,
2013-03-05 15:44:00,35.3,21.2,30.23,North,351,8.0,17.0,56,0.00,,---,0.04,VWS V14.01,2013-03-05 21:44:00,
2013-03-05 15:49:00,35.2,21.1,30.23,NNW,333,8.0,21.0,56,0.00,,---,0.04,VWS V14.01,2013-03-05 21:49:00,
2013-03-05 15:54:00,35.0,20.9,30.23,North,360,5.0,21.0,56,0.00,,---,0.04,VWS V14.01,2013-03-05 21:54:00,
2013-03-05 15:59:00,35.0,20.9,30.23,NW,307,3.0,21.0,56,0.00,,---,0.04,VWS V14.01,2013-03-05 21:59:00,
2013-03-05 16:00:00,35.0,20.9,30.24,NNW,342,10.0,21.0,56,0.00,,---,0.04,VWS V14.01,2013-03-05 22:00:00,
2013-03-05 16:04:00,35.0,20.9,30.24,NNW,329,5.0,16.0,56,0.00,,---,0.04,VWS V14.01,2013-03-05 22:04:00,
2013-03-05 16:09:00,35.0,20.9,30.24,NNW,342,6.0,16.0,56,0.00,,---,0.04,VWS V14.01,2013-03-05 22:09:00,
2013-03-05 16:14:00,34.9,20.8,30.24,NW,318,11.0,16.0,56,0.00,,---,0.04,VWS V14.01,2013-03-05 22:14:00,
2013-03-05 16:19:00,34.7,21.0,30.25,NNW,337,7.0,16.0,57,0.00,,---,0.04,VWS V14.01,2013-03-05 22:19:00,
2013-03-05 16:24:00,34.3,20.2,30.25,NNW,329,18.0,20.0,56,0.00,,---,0.04,VWS V14.01,2013-03-05 22:24:00,
2013-03-05 16:29:00,34.1,20.1,30.25,North,5,8.0,20.0,56,0.00,,---,0.04,VWS V14.01,2013-03-05 22:29:00,
2013-03-05 16:30:00,34.1,19.2,30.25,NW,321,9.0,20.0,54,0.00,,---,0.04,VWS V14.01,2013-03-05 22:30:00,
2013-03-05 16:34:00,34.1,20.5,30.25,NW,304,3.0,13.0,57,0.00,,---,0.04,VWS V14.01,2013-03-05 22:34:00,
2013-03-05 16:39:00,34.0,20.0,30.25,WSW,252,8.0,16.0,56,0.00,,---,0.04,VWS V14.01,2013-03-05 22:39:00,
2013-03-05 16:44:00,33.8,20.2,30.25,North,351,10.0,16.0,57,0.00,,---,0.04,VWS V14.01,2013-03-05 22:44:00,
2013-03-05 16:49:00,33.7,20.1,30.26,NNW,337,5.0,16.0,57,0.00,,---,0.04,VWS V14.01,2013-03-05 22:49:00,
2013-03-05 16:54:00,33.7,20.1,30.26,NW,325,7.0,16.0,57,0.00,,---,0.04,VWS V14.01,2013-03-05 22:54:00,
2013-03-05 16:59:00,33.7,20.1,30.26,NNE,31,3.0,16.0,57,0.00,,---,0.04,VWS V14.01,2013-03-05 22:59:00,
2013-03-05 17:00:00,33.5,19.9,30.26,NW,309,3.0,16.0,57,0.00,,---,0.04,VWS V14.01,2013-03-05 23:00:00,
2013-03-05 17:04:00,33.5,19.9,30.26,North,5,2.0,10.0,57,0.00,,---,0.04,VWS V14.01,2013-03-05 23:04:00,
2013-03-05 17:09:00,33.4,19.8,30.26,NNW,332,10.0,12.0,57,0.00,,---,0.04,VWS V14.01,2013-03-05 23:09:00,
2013-03-05 17:14:00,33.4,19.8,30.26,NW,313,7.0,15.0,57,0.00,,---,0.04,VWS V14.01,2013-03-05 23:14:00,
2013-03-05 17:19:00,33.4,19.8,30.26,NW,325,16.0,21.0,57,0.00,,---,0.04,VWS V14.01,2013-03-05 23:19:00,
2013-03-05 17:24:00,33.4,19.8,30.26,NNW,331,5.0,21.0,57,0.00,,---,0.04,VWS V14.01,2013-03-05 23:24:00,
2013-03-05 17:29:00,33.4,19.8,30.26,WNW,291,0.0,21.0,57,0.00,,---,0.04,VWS V14.01,2013-03-05 23:29:00,
2013-03-05 17:30:00,33.2,19.6,30.26,NW,319,7.0,22.0,57,0.00,,---,0.04,VWS V14.01,2013-03-05 23:30:00,
2013-03-05 17:34:00,33.1,19.5,30.26,North,355,4.0,14.0,57,0.00,,---,0.04,VWS V14.01,2013-03-05 23:34:00,
2013-03-05 17:39:00,33.1,19.5,30.26,NNW,334,7.0,17.0,57,0.00,,---,0.04,VWS V14.01,2013-03-05 23:39:00,
2013-03-05 17:44:00,33.1,19.5,30.26,North,355,9.0,17.0,57,0.00,,---,0.04,VWS V14.01,2013-03-05 23:44:00,
2013-03-05 17:49:00,33.1,19.5,30.27,NW,321,2.0,17.0,57,0.00,,---,0.04,VWS V14.01,2013-03-05 23:49:00,
2013-03-05 17:54:00,33.1,19.5,30.27,West,269,1.0,17.0,57,0.00,,---,0.04,VWS V14.01,2013-03-05 23:54:00,
2013-03-05 17:59:00,33.1,19.5,30.27,North,355,6.0,17.0,57,0.00,,---,0.04,VWS V14.01,2013-03-05 23:59:00,
2013-03-05 18:00:00,33.1,19.5,30.27,NW,318,3.0,17.0,57,0.00,,---,0.04,VWS V14.01,2013-03-06 00:00:00,
2013-03-05 18:04:00,33.1,19.5,30.27,NW,317,3.0,10.0,57,0.00,,---,0.04,VWS V14.01,2013-03-06 00:04:00,
2013-03-05 18:09:00,32.9,19.4,30.27,NW,314,5.0,19.0,57,0.00,,---,0.04,VWS V14.01,2013-03-06 00:09:00,
2013-03-05 18:14:00,32.9,19.4,30.27,NW,322,6.0,19.0,57,0.00,,---,0.04,VWS V14.01,2013-03-06 00:14:00,
2013-03-05 18:19:00,32.9,19.4,30.27,NNE,15,5.0,19.0,57,0.00,,---,0.04,VWS V14.01,2013-03-06 00:19:00,
2013-03-05 18:24:00,32.9,19.8,30.27,SE,144,2.0,19.0,58,0.00,,---,0.04,VWS V14.01,2013-03-06 00:24:00,
2013-03-05 18:29:00,32.8,19.7,30.27,North,355,3.0,19.0,58,0.00,,---,0.04,VWS V14.01,2013-03-06 00:29:00,
2013-03-05 18:30:00,32.7,19.6,30.28,NNW,348,4.0,19.0,58,0.00,,---,0.04,VWS V14.01,2013-03-06 00:30:00,
2013-03-05 18:34:00,32.5,19.4,30.28,NNW,344,6.0,11.0,58,0.00,,---,0.04,VWS V14.01,2013-03-06 00:34:00,
2013-03-05 18:39:00,32.4,19.3,30.28,South,177,2.0,13.0,58,0.00,,---,0.04,VWS V14.01,2013-03-06 00:39:00,
2013-03-05 18:44:00,32.1,19.0,30.28,NNW,346,6.0,13.0,58,0.00,,---,0.04,VWS V14.01,2013-03-06 00:44:00,
2013-03-05 18:49:00,31.8,18.7,30.28,NW,319,2.0,16.0,58,0.00,,---,0.04,VWS V14.01,2013-03-06 00:49:00,
2013-03-05 18:54:00,31.6,18.5,30.28,North,355,11.0,16.0,58,0.00,,---,0.04,VWS V14.01,2013-03-06 00:54:00,
2013-03-05 18:59:00,31.6,18.5,30.28,NNW,343,6.0,16.0,58,0.00,,---,0.04,VWS V14.01,2013-03-06 00:59:00,
2013-03-05 19:00:00,31.5,18.4,30.29,NNW,327,3.0,16.0,58,0.00,,---,0.04,VWS V14.01,2013-03-06 01:00:00,
2013-03-05 19:04:00,31.5,18.8,30.29,NNE,33,3.0,9.0,59,0.00,,---,0.04,VWS V14.01,2013-03-06 01:04:00,
2013-03-05 19:09:00,31.3,18.6,30.29,NNW,335,4.0,9.0,59,0.00,,---,0.04,VWS V14.01,2013-03-06 01:09:00,
2013-03-05 19:14:00,31.3,18.6,30.29,NW,313,2.0,9.0,59,0.00,,---,0.04,VWS V14.01,2013-03-06 01:14:00,
2013-03-05 19:19:00,31.3,18.6,30.30,NNW,344,3.0,10.0,59,0.00,,---,0.04,VWS V14.01,2013-03-06 01:19:00,
2013-03-05 19:24:00,31.3,18.6,30.30,NNW,327,2.0,11.0,59,0.00,,---,0.04,VWS V14.01,2013-03-06 01:24:00,
2013-03-05 19:29:00,31.2,18.5,30.30,WSW,254,2.0,11.0,59,0.00,,---,0.04,VWS V14.01,2013-03-06 01:29:00,
2013-03-05 19:30:00,31.2,18.6,30.29,NNW,342,7.0,11.0,59,0.00,,---,0.04,VWS V14.01,2013-03-06 01:30:00,
2013-03-05 19:34:00,31.2,18.5,30.29,NNW,344,4.0,8.0,59,0.00,,---,0.04,VWS V14.01,2013-03-06 01:34:00,
2013-03-05 19:39:00,31.2,18.5,30.29,North,360,6.0,9.0,59,0.00,,---,0.04,VWS V14.01,2013-03-06 01:39:00,
2013-03-05 19:44:00,31.2,18.5,30.29,NNW,342,7.0,9.0,59,0.00,,---,0.04,VWS V14.01,2013-03-06 01:44:00,
2013-03-05 19:49:00,31.2,18.5,30.29,North,5,7.0,10.0,59,0.00,,---,0.04,VWS V14.01,2013-03-06 01:49:00,
2013-03-05 19:54:00,31.2,18.5,30.29,NNW,333,4.0,10.0,59,0.00,,---,0.04,VWS V14.01,2013-03-06 01:54:00,
2013-03-05 19:59:00,31.0,18.4,30.29,NNW,335,5.0,10.0,59,0.00,,---,0.04,VWS V14.01,2013-03-06 01:59:00,
2013-03-05 20:00:00,31.0,18.4,30.30,NNW,335,4.0,10.0,59,0.00,,---,0.04,VWS V14.01,2013-03-06 02:00:00,
2013-03-05 20:04:00,31.0,18.4,30.30,NW,325,7.0,16.0,59,0.00,,---,0.04,VWS V14.01,2013-03-06 02:04:00,
2013-03-05 20:09:00,31.0,18.4,30.30,North,5,5.0,16.0,59,0.00,,---,0.04,VWS V14.01,2013-03-06 02:09:00,
2013-03-05 20:14:00,30.9,18.3,30.30,NNW,330,1.0,16.0,59,0.00,,---,0.04,VWS V14.01,2013-03-06 02:14:00,
2013-03-05 20:19:00,30.6,18.0,30.30,NNW,327,7.0,16.0,59,0.00,,---,0.04,VWS V14.01,2013-03-06 02:19:00,
2013-03-05 20:24:00,30.6,18.0,30.30,NNW,331,4.0,16.0,59,0.00,,---,0.04,VWS V14.01,2013-03-06 02:24:00,
2013-03-05 20:29:00,30.6,18.0,30.30,WNW,300,5.0,16.0,59,0.00,,---,0.04,VWS V14.01,2013-03-06 02:29:00,
2013-03-05 20:30:00,30.4,17.8,30.30,West,280,2.0,16.0,59,0.00,,---,0.04,VWS V14.01,2013-03-06 02:30:00,
2013-03-05 20:34:00,30.4,17.8,30.30,NNW,336,3.0,9.0,59,0.00,,---,0.04,VWS V14.01,2013-03-06 02:34:00,
2013-03-05 20:39:00,30.3,17.7,30.30,NW,311,3.0,11.0,59,0.00,,---,0.04,VWS V14.01,2013-03-06 02:39:00,
2013-03-05 20:44:00,30.3,17.7,30.30,North,9,7.0,12.0,59,0.00,,---,0.04,VWS V14.01,2013-03-06 02:44:00,
2013-03-05 20:49:00,30.1,17.5,30.31,NW,324,8.0,12.0,59,0.00,,---,0.04,VWS V14.01,2013-03-06 02:49:00,
2013-03-05 20:54:00,30.0,17.4,30.31,NNE,32,6.0,12.0,59,0.00,,---,0.04,VWS V14.01,2013-03-06 02:54:00,
2013-03-05 20:59:00,29.8,17.2,30.31,NW,325,3.0,12.0,59,0.00,,---,0.04,VWS V14.01,2013-03-06 02:59:00,
2013-03-05 21:00:00,29.7,17.1,30.32,NNW,338,8.0,14.0,59,0.00,,---,0.04,VWS V14.01,2013-03-06 03:00:00,
2013-03-05 21:04:00,29.7,17.1,30.32,NNW,344,4.0,12.0,59,0.00,,---,0.04,VWS V14.01,2013-03-06 03:04:00,
2013-03-05 21:09:00,29.5,17.3,30.32,NW,319,2.0,12.0,60,0.00,,---,0.04,VWS V14.01,2013-03-06 03:09:00,
2013-03-05 21:14:00,29.4,17.2,30.32,West,259,4.0,13.0,60,0.00,,---,0.04,VWS V14.01,2013-03-06 03:14:00,
2013-03-05 21:19:00,29.3,17.1,30.33,West,268,3.0,13.0,60,0.00,,---,0.04,VWS V14.01,2013-03-06 03:19:00,
2013-03-05 21:24:00,29.3,17.1,30.33,NNE,15,5.0,13.0,60,0.00,,---,0.04,VWS V14.01,2013-03-06 03:24:00,
2013-03-05 21:29:00,29.0,16.9,30.33,NNW,331,2.0,13.0,60,0.00,,---,0.04,VWS V14.01,2013-03-06 03:29:00,
2013-03-05 21:30:00,29.0,16.9,30.34,North,350,6.0,13.0,60,0.00,,---,0.04,VWS V14.01,2013-03-06 03:30:00,
2013-03-05 21:34:00,29.0,17.2,30.34,NW,325,3.0,9.0,61,0.00,,---,0.04,VWS V14.01,2013-03-06 03:34:00,
2013-03-05 21:39:00,28.8,17.1,30.34,NNW,346,8.0,12.0,61,0.00,,---,0.04,VWS V14.01,2013-03-06 03:39:00,
2013-03-05 21:44:00,28.7,17.0,30.34,NNW,348,7.0,13.0,61,0.00,,---,0.04,VWS V14.01,2013-03-06 03:44:00,
2013-03-05 21:49:00,28.5,16.8,30.34,NNW,333,10.0,13.0,61,0.00,,---,0.04,VWS V14.01,2013-03-06 03:49:00,
2013-03-05 21:54:00,28.4,16.7,30.34,North,355,7.0,13.0,61,0.00,,---,0.04,VWS V14.01,2013-03-06 03:54:00,
2013-03-05 21:59:00,28.2,16.5,30.34,NNW,341,4.0,13.0,61,0.00,,---,0.04,VWS V14.01,2013-03-06 03:59:00,
2013-03-05 22:00:00,28.1,16.4,30.34,NNW,348,6.0,13.0,61,0.00,,---,0.04,VWS V14.01,2013-03-06 04:00:00,
2013-03-05 22:04:00,27.9,16.2,30.34,NW,325,11.0,11.0,61,0.00,,---,0.04,VWS V14.01,2013-03-06 04:04:00,
2013-03-05 22:09:00,27.9,16.6,30.34,North,355,5.0,11.0,62,0.00,,---,0.04,VWS V14.01,2013-03-06 04:09:00,
2013-03-05 22:14:00,27.8,16.5,30.34,NNW,337,5.0,11.0,62,0.00,,---,0.04,VWS V14.01,2013-03-06 04:14:00,
2013-03-05 22:19:00,27.8,16.5,30.34,NW,326,4.0,11.0,62,0.00,,---,0.04,VWS V14.01,2013-03-06 04:19:00,
2013-03-05 22:24:00,27.8,16.5,30.34,NNW,342,9.0,11.0,62,0.00,,---,0.04,VWS V14.01,2013-03-06 04:24:00,
2013-03-05 22:29:00,27.8,16.5,30.34,NNW,338,4.0,11.0,62,0.00,,---,0.04,VWS V14.01,2013-03-06 04:29:00,
2013-03-05 22:30:00,27.6,16.3,30.35,North,351,5.0,11.0,62,0.00,,---,0.04,VWS V14.01,2013-03-06 04:30:00,
2013-03-05 22:34:00,27.6,16.3,30.35,North,350,2.0,12.0,62,0.00,,---,0.04,VWS V14.01,2013-03-06 04:34:00,
2013-03-05 22:39:00,27.5,16.2,30.35,North,355,6.0,12.0,62,0.00,,---,0.04,VWS V14.01,2013-03-06 04:39:00,
2013-03-05 22:44:00,27.3,16.4,30.35,NNW,329,6.0,12.0,63,0.00,,---,0.04,VWS V14.01,2013-03-06 04:44:00,
2013-03-05 22:49:00,27.2,16.3,30.35,North,360,1.0,12.0,63,0.00,,---,0.04,VWS V14.01,2013-03-06 04:49:00,
2013-03-05 22:54:00,27.2,16.3,30.35,NNW,329,6.0,13.0,63,0.00,,---,0.04,VWS V14.01,2013-03-06 04:54:00,
2013-03-05 22:59:00,27.0,16.1,30.35,NNW,339,4.0,13.0,63,0.00,,---,0.04,VWS V14.01,2013-03-06 04:59:00,
2013-03-05 23:00:00,27.0,16.1,30.35,NNW,341,3.0,13.0,63,0.00,,---,0.04,VWS V14.01,2013-03-06 05:00:00,
2013-03-05 23:05:00,26.9,16.0,30.36,NW,322,7.0,10.0,63,0.00,,---,0.04,VWS V14.01,2013-03-06 05:05:00,
2013-03-05 23:10:00,26.9,16.0,30.36,NNW,348,4.0,10.0,63,0.00,,---,0.04,VWS V14.01,2013-03-06 05:10:00,
2013-03-05 23:15:00,26.7,15.8,30.36,NNW,329,2.0,10.0,63,0.00,,---,0.04,VWS V14.01,2013-03-06 05:15:00,
2013-03-05 23:20:00,26.6,15.7,30.37,NNW,340,1.0,10.0,63,0.00,,---,0.04,VWS V14.01,2013-03-06 05:20:00,
2013-03-05 23:25:00,26.6,15.7,30.37,North,355,1.0,10.0,63,0.00,,---,0.04,VWS V14.01,2013-03-06 05:25:00,
2013-03-05 23:30:00,26.6,16.1,30.37,NW,326,4.0,10.0,64,0.00,,---,0.04,VWS V14.01,2013-03-06 05:30:00,
2013-03-05 23:35:00,26.6,16.1,30.37,NW,325,4.0,8.0,64,0.00,,---,0.04,VWS V14.01,2013-03-06 05:35:00,
2013-03-05 23:40:00,26.6,16.1,30.37,North,355,3.0,8.0,64,0.00,,---,0.04,VWS V14.01,2013-03-06 05:40:00,
2013-03-05 23:45:00,26.6,16.1,30.37,North,360,3.0,8.0,64,0.00,,---,0.04,VWS V14.01,2013-03-06 05:45:00,
2013-03-05 23:50:00,26.6,16.1,30.37,WSW,242,2.0,8.0,64,0.00,,---,0.04,VWS V14.01,2013-03-06 05:50:00,
2013-03-05 23:55:00,26.4,15.9,30.37,NNW,338,2.0,9.0,64,0.00,,---,0.04,VWS V14.01,2013-03-06 05:55:00,